Terminal Aerodrome Forecast
Issued by NWS

Home | Current Version | Previous Version | Text Only | Print | Product List | Glossary On
Versions: 1 2 3 4 5 6 7 8 9 10 11 12 13 14 15 16 17
905
FTUS43 KJKL 231359 AAA
TAFSME
TAF AMD
KSME 231359Z 2314/2412 19007KT P6SM BKN018 OVC025
     FM231600 20010G16KT P6SM BKN025
     FM231800 21012G19KT P6SM VCTS BKN035CB BKN200
     FM232300 21011G18KT 2SM SHRA BR VCTS OVC015CB
     FM240200 29005KT 2SM SHRA BR OVC008=

USA.gov is the U.S. government's official web portal to all federal, state and local government web resources and services.